Yeoman, Indiana
Current Conditions -  °F | °C
As of 9:55 AM on Thursday 23 Oct 2014 (Local Time) from KMCX Reporting Station
Haze Haze  
Wind Chill: 40°   Ceiling: Unl
Heat Index: 43°   Visibility: 5mi
Dew Point: 41°   Wind: 5mph
Humidity: 93%   Direction: 180°S
Pressure: 30.25"   Gusts: NA
Location:  40.67°N, 86.72°W
Report Text: KMCX 231355Z AUTO 18004KT 5SM BR CLR 06/05 A3025 RMK AO2 T00590049
Loading
Personal Weather Stations






























Interactive Weather Map
Tropical Storm Tracking
New forecast layout! Learn more

10-Day Weather Forecast

Advertisements
Track Severe Weather on mobile